createdAt,value
2017-06-27T00:00:05.841Z,15.7
2017-06-27T00:00:21.566Z,12.4
2017-06-27T00:00:37.169Z,9.0
2017-06-27T00:00:53.282Z,9.6
2017-06-27T00:01:08.829Z,9.7
2017-06-27T00:01:24.038Z,12.0
2017-06-27T00:01:39.454Z,12.2
2017-06-27T00:01:55.162Z,10.8
2017-06-27T00:02:10.371Z,10.3
2017-06-27T00:02:25.888Z,8.3
2017-06-27T00:02:41.592Z,9.2
2017-06-27T00:02:57.206Z,8.8
2017-06-27T00:03:12.644Z,9.1
2017-06-27T00:03:28.255Z,8.5
2017-06-27T00:03:43.862Z,7.0
2017-06-27T00:03:59.277Z,9.1
2017-06-27T00:04:14.814Z,7.5
2017-06-27T00:04:30.228Z,9.9
2017-06-27T00:04:45.742Z,12.5
2017-06-27T00:05:01.172Z,9.9
2017-06-27T00:05:16.584Z,14.0
2017-06-27T00:05:31.993Z,14.0
2017-06-27T00:05:47.305Z,14.0
2017-06-27T00:06:02.925Z,16.2
2017-06-27T00:06:18.534Z,13.8
2017-06-27T00:06:34.248Z,13.2
2017-06-27T00:06:49.562Z,11.4
2017-06-27T00:07:04.982Z,14.1
2017-06-27T00:07:20.701Z,14.1
2017-06-27T00:07:36.212Z,11.9
2017-06-27T00:07:51.512Z,10.9
2017-06-27T00:08:07.321Z,9.4
2017-06-27T00:08:22.834Z,9.9
2017-06-27T00:08:38.342Z,11.4
2017-06-27T00:08:53.670Z,13.5
2017-06-27T00:09:09.476Z,13.0
2017-06-27T00:09:24.789Z,14.1
2017-06-27T00:09:40.295Z,16.4
2017-06-27T00:09:55.903Z,13.7
2017-06-27T00:10:11.106Z,12.9
2017-06-27T00:10:27.022Z,10.7
2017-06-27T00:10:42.449Z,9.3
2017-06-27T00:10:57.964Z,9.9
2017-06-27T00:11:13.474Z,11.6
2017-06-27T00:11:29.189Z,10.3
2017-06-27T00:11:45.092Z,9.0
2017-06-27T00:12:00.598Z,11.7
2017-06-27T00:12:16.017Z,10.8
2017-06-27T00:12:31.841Z,12.8
2017-06-27T00:12:47.254Z,9.7
2017-06-27T00:13:02.853Z,8.6
2017-06-27T00:13:18.266Z,8.8
2017-06-27T00:13:33.874Z,8.0
2017-06-27T00:13:49.591Z,8.7
2017-06-27T00:14:05.097Z,11.2
2017-06-27T00:14:20.695Z,10.7
2017-06-27T00:14:36.106Z,10.1
2017-06-27T00:14:51.712Z,10.4
2017-06-27T00:15:07.021Z,9.1
2017-06-27T00:15:22.336Z,10.0
2017-06-27T00:15:37.745Z,11.6
2017-06-27T00:15:53.454Z,13.8
2017-06-27T00:16:08.979Z,17.5
2017-06-27T00:16:27.089Z,17.8
2017-06-27T00:16:42.400Z,14.9
2017-06-27T00:16:58.132Z,6.9
2017-06-27T00:17:13.628Z,9.8
2017-06-27T00:17:29.342Z,9.2
2017-06-27T00:17:44.868Z,10.1
2017-06-27T00:18:00.279Z,10.9
2017-06-27T00:18:15.891Z,12.3
2017-06-27T00:18:31.446Z,13.3
2017-06-27T00:18:47.268Z,14.3
2017-06-27T00:19:02.879Z,14.3
2017-06-27T00:19:18.589Z,9.7
2017-06-27T00:19:34.000Z,10.6
2017-06-27T00:19:49.512Z,9.9
2017-06-27T00:20:05.023Z,9.8
2017-06-27T00:20:20.632Z,10.8
2017-06-27T00:20:36.139Z,9.4
2017-06-27T00:20:51.854Z,8.3
2017-06-27T00:21:07.268Z,9.2
2017-06-27T00:21:22.591Z,8.2
2017-06-27T00:21:38.307Z,9.1
2017-06-27T00:21:53.815Z,11.2
2017-06-27T00:22:09.127Z,11.2
2017-06-27T00:22:24.639Z,10.6
2017-06-27T00:22:40.149Z,9.8
2017-06-27T00:22:55.664Z,8.0
2017-06-27T00:23:11.277Z,10.7
2017-06-27T00:23:26.892Z,13.1
2017-06-27T00:23:42.490Z,12.2
2017-06-27T00:23:58.207Z,12.4
2017-06-27T00:24:13.715Z,8.3
2017-06-27T00:24:29.226Z,7.0
2017-06-27T00:24:44.639Z,9.0
2017-06-27T00:24:59.946Z,9.4
2017-06-27T00:25:15.561Z,11.4
2017-06-27T00:25:31.067Z,12.0
2017-06-27T00:25:46.384Z,12.8
2017-06-27T00:26:01.993Z,14.0
2017-06-27T00:26:18.179Z,13.1
2017-06-27T00:26:33.485Z,11.9
2017-06-27T00:26:49.700Z,9.5
2017-06-27T00:27:05.515Z,9.5
2017-06-27T00:27:21.020Z,8.3
2017-06-27T00:27:36.435Z,8.5
2017-06-27T00:27:52.346Z,10.7
2017-06-27T00:28:07.869Z,9.0
2017-06-27T00:28:23.581Z,8.4
2017-06-27T00:28:38.992Z,8.2
2017-06-27T00:28:54.404Z,6.7
2017-06-27T00:29:09.716Z,7.6
2017-06-27T00:29:25.127Z,13.2
2017-06-27T00:29:40.638Z,15.5
2017-06-27T00:29:56.447Z,14.7
2017-06-27T00:30:11.954Z,14.6
2017-06-27T00:30:27.464Z,11.6
2017-06-27T00:30:42.986Z,11.1
2017-06-27T00:30:58.394Z,10.9
2017-06-27T00:31:13.899Z,10.1
2017-06-27T00:31:29.510Z,6.8
2017-06-27T00:31:44.923Z,8.7
2017-06-27T00:32:00.233Z,11.3
2017-06-27T00:32:15.660Z,12.0
2017-06-27T00:32:31.272Z,11.3
2017-06-27T00:32:46.980Z,9.7
2017-06-27T00:33:02.190Z,9.6
2017-06-27T00:33:17.604Z,9.6
2017-06-27T00:33:32.920Z,10.6
2017-06-27T00:33:48.338Z,9.8
2017-06-27T00:34:04.052Z,8.1
2017-06-27T00:34:19.588Z,9.7
2017-06-27T00:34:34.764Z,9.3
2017-06-27T00:34:50.477Z,9.5
2017-06-27T00:35:05.995Z,10.3
2017-06-27T00:35:21.600Z,10.4
2017-06-27T00:35:37.015Z,11.4
2017-06-27T00:35:52.425Z,12.8
2017-06-27T00:36:07.736Z,13.0
2017-06-27T00:36:23.353Z,9.5
2017-06-27T00:36:38.963Z,9.4
2017-06-27T00:36:54.470Z,8.1
2017-06-27T00:37:10.100Z,7.0
2017-06-27T00:37:25.510Z,8.6
2017-06-27T00:37:41.123Z,10.0
2017-06-27T00:37:56.638Z,9.5
2017-06-27T00:38:11.958Z,9.5
2017-06-27T00:38:27.464Z,7.3
2017-06-27T00:38:42.876Z,9.3
2017-06-27T00:38:58.201Z,9.9
2017-06-27T00:39:13.820Z,10.6
2017-06-27T00:39:29.334Z,11.8
2017-06-27T00:39:44.746Z,9.7
2017-06-27T00:40:00.155Z,11.6
2017-06-27T00:40:15.860Z,10.7
2017-06-27T00:40:31.271Z,15.1
2017-06-27T00:40:46.593Z,16.3
2017-06-27T00:41:02.003Z,15.9
2017-06-27T00:41:17.617Z,18.6
2017-06-27T00:41:33.352Z,14.5
2017-06-27T00:41:49.050Z,15.8
2017-06-27T00:42:04.564Z,14.8
2017-06-27T00:42:20.082Z,13.8
2017-06-27T00:42:35.486Z,12.9
2017-06-27T00:42:51.094Z,9.9
2017-06-27T00:43:06.803Z,9.3
2017-06-27T00:43:22.331Z,9.8
2017-06-27T00:43:37.841Z,8.1
2017-06-27T00:43:53.152Z,8.6
2017-06-27T00:44:08.660Z,8.8
2017-06-27T00:44:24.199Z,9.9
2017-06-27T00:44:39.599Z,12.3
2017-06-27T00:44:55.020Z,13.1
2017-06-27T00:45:10.349Z,15.7
2017-06-27T00:45:25.981Z,13.8
2017-06-27T00:45:41.389Z,12.1
2017-06-27T00:45:56.917Z,11.9
2017-06-27T00:46:12.424Z,8.1
2017-06-27T00:46:27.835Z,9.5
2017-06-27T00:46:43.552Z,9.9
2017-06-27T00:46:58.966Z,10.2
2017-06-27T00:47:14.584Z,11.9
2017-06-27T00:47:30.272Z,10.5
2017-06-27T00:47:45.776Z,14.4
2017-06-27T00:48:01.491Z,12.5
2017-06-27T00:48:16.806Z,12.5
2017-06-27T00:48:32.528Z,14.0
2017-06-27T00:48:48.138Z,11.4
2017-06-27T00:49:03.648Z,13.9
2017-06-27T00:49:19.059Z,15.1
2017-06-27T00:49:34.469Z,13.6
2017-06-27T00:49:49.983Z,16.3
2017-06-27T00:50:05.396Z,15.5
2017-06-27T00:50:20.807Z,14.7
2017-06-27T00:50:36.117Z,12.6
2017-06-27T00:50:51.732Z,10.5
2017-06-27T00:51:07.250Z,11.0
2017-06-27T00:51:22.856Z,11.5
2017-06-27T00:51:38.365Z,12.9
2017-06-27T00:51:53.993Z,16.2
2017-06-27T00:52:09.500Z,15.7
2017-06-27T00:52:25.010Z,14.0
2017-06-27T00:52:40.423Z,13.0
2017-06-27T00:52:56.243Z,12.0
2017-06-27T00:53:11.655Z,14.2
2017-06-27T00:53:27.060Z,12.1
2017-06-27T00:53:42.673Z,14.5
2017-06-27T00:53:58.189Z,13.2
2017-06-27T00:54:13.702Z,11.7
2017-06-27T00:54:29.118Z,12.0
2017-06-27T00:54:44.622Z,10.3
2017-06-27T00:55:00.040Z,8.8
2017-06-27T00:55:15.652Z,11.3
2017-06-27T00:55:31.073Z,10.2
2017-06-27T00:55:46.483Z,9.0
2017-06-27T00:56:01.798Z,11.2
2017-06-27T00:56:18.906Z,9.1
2017-06-27T00:56:34.416Z,12.1
2017-06-27T00:56:50.027Z,14.1
2017-06-27T00:57:05.540Z,14.9
2017-06-27T00:57:20.953Z,14.6
2017-06-27T00:57:36.361Z,15.6
2017-06-27T00:57:51.575Z,14.1
2017-06-27T00:58:07.185Z,10.8
2017-06-27T00:58:22.596Z,11.6
2017-06-27T00:58:38.400Z,8.6
2017-06-27T00:58:53.918Z,10.8
2017-06-27T00:59:09.529Z,11.9
2017-06-27T00:59:24.836Z,10.7
2017-06-27T00:59:40.251Z,13.0
2017-06-27T00:59:55.663Z,11.5
2017-06-27T01:00:11.169Z,11.9
2017-06-27T01:00:26.682Z,10.7
2017-06-27T01:00:42.084Z,8.8
2017-06-27T01:00:57.497Z,9.6
2017-06-27T01:01:13.113Z,9.5
2017-06-27T01:01:29.023Z,10.2
2017-06-27T01:01:44.531Z,10.5
2017-06-27T01:02:00.038Z,9.9
2017-06-27T01:02:15.353Z,9.4
2017-06-27T01:02:30.958Z,9.7
2017-06-27T01:02:46.370Z,9.0
2017-06-27T01:03:01.887Z,11.3
2017-06-27T01:03:17.198Z,13.4
2017-06-27T01:03:32.614Z,12.5
2017-06-27T01:03:48.118Z,12.4
2017-06-27T01:04:03.526Z,11.5
2017-06-27T01:04:19.238Z,10.3
2017-06-27T01:04:34.546Z,11.9
2017-06-27T01:04:49.856Z,12.4
2017-06-27T01:05:05.171Z,11.4
2017-06-27T01:05:20.373Z,9.6
2017-06-27T01:05:35.887Z,10.3
2017-06-27T01:05:51.297Z,9.6
2017-06-27T01:06:06.607Z,7.8
2017-06-27T01:06:22.317Z,8.9
2017-06-27T01:06:37.828Z,8.7
2017-06-27T01:06:53.533Z,10.4
2017-06-27T01:07:09.046Z,12.3
2017-06-27T01:07:24.358Z,12.5
2017-06-27T01:07:39.663Z,12.1
2017-06-27T01:07:55.179Z,13.4
2017-06-27T01:08:10.694Z,14.0
2017-06-27T01:08:26.104Z,14.6
2017-06-27T01:08:41.537Z,16.5
2017-06-27T01:08:57.141Z,13.7
2017-06-27T01:09:12.654Z,12.7
2017-06-27T01:09:28.266Z,12.5
2017-06-27T01:09:43.774Z,11.0
2017-06-27T01:09:59.283Z,11.5
2017-06-27T01:10:14.702Z,11.8
2017-06-27T01:10:30.119Z,13.4
2017-06-27T01:10:45.826Z,12.4
2017-06-27T01:11:01.339Z,12.5
2017-06-27T01:11:16.749Z,12.3
2017-06-27T01:11:32.165Z,12.5
2017-06-27T01:11:47.777Z,10.7
2017-06-27T01:12:03.288Z,9.9
2017-06-27T01:12:18.702Z,10.4
2017-06-27T01:12:34.107Z,11.0
2017-06-27T01:12:49.623Z,13.2
2017-06-27T01:13:05.138Z,12.9
2017-06-27T01:13:20.754Z,13.2
2017-06-27T01:13:36.067Z,14.8
2017-06-27T01:13:51.483Z,13.6
2017-06-27T01:14:06.994Z,16.5
2017-06-27T01:14:22.385Z,12.7
2017-06-27T01:14:37.791Z,9.7
2017-06-27T01:14:53.208Z,11.2
2017-06-27T01:15:08.621Z,10.0
2017-06-27T01:15:23.833Z,11.5
2017-06-27T01:15:39.150Z,14.0
2017-06-27T01:15:54.666Z,14.9
2017-06-27T01:16:10.369Z,16.5
2017-06-27T01:16:25.778Z,19.5
2017-06-27T01:16:41.413Z,18.3
2017-06-27T01:16:56.903Z,17.4
2017-06-27T01:17:12.311Z,15.8
2017-06-27T01:17:27.629Z,12.5
2017-06-27T01:17:42.940Z,12.0
2017-06-27T01:17:58.448Z,11.4
2017-06-27T01:18:13.957Z,11.4
2017-06-27T01:18:29.273Z,11.1
2017-06-27T01:18:44.888Z,12.7
2017-06-27T01:19:00.195Z,11.7
2017-06-27T01:19:15.722Z,11.5
2017-06-27T01:19:31.330Z,11.8
2017-06-27T01:19:46.852Z,13.7
2017-06-27T01:20:02.358Z,15.4
2017-06-27T01:20:17.667Z,16.7
2017-06-27T01:20:33.181Z,16.4
2017-06-27T01:20:48.700Z,12.7
2017-06-27T01:21:04.012Z,10.9
2017-06-27T01:21:19.326Z,10.7
2017-06-27T01:21:34.934Z,9.7
2017-06-27T01:21:50.346Z,10.8
2017-06-27T01:22:05.856Z,15.5
2017-06-27T01:22:21.471Z,14.3
2017-06-27T01:22:37.179Z,16.2
2017-06-27T01:22:52.592Z,18.6
2017-06-27T01:23:08.002Z,14.8
2017-06-27T01:23:23.714Z,16.1
2017-06-27T01:23:39.321Z,13.8
2017-06-27T01:23:54.928Z,13.5
2017-06-27T01:24:10.439Z,12.5
2017-06-27T01:24:25.870Z,9.7
2017-06-27T01:24:41.384Z,10.1
2017-06-27T01:24:56.794Z,8.6
2017-06-27T01:25:12.402Z,8.5
2017-06-27T01:25:28.012Z,12.6
2017-06-27T01:25:43.621Z,12.1
2017-06-27T01:25:59.033Z,11.8
2017-06-27T01:26:14.645Z,12.4
2017-06-27T01:26:29.956Z,12.0
2017-06-27T01:26:45.675Z,13.7
2017-06-27T01:27:01.279Z,17.0
2017-06-27T01:27:16.788Z,17.3
2017-06-27T01:27:32.503Z,15.5
2017-06-27T01:27:48.009Z,14.9
2017-06-27T01:28:03.624Z,11.1
2017-06-27T01:28:19.035Z,9.8
2017-06-27T01:28:34.347Z,10.1
2017-06-27T01:28:49.984Z,10.9
2017-06-27T01:29:05.295Z,11.0
2017-06-27T01:29:20.708Z,11.5
2017-06-27T01:29:36.213Z,11.4
2017-06-27T01:29:51.720Z,12.4
2017-06-27T01:30:07.134Z,12.1
2017-06-27T01:30:22.545Z,13.3
2017-06-27T01:30:38.054Z,12.5
2017-06-27T01:30:53.560Z,11.8
2017-06-27T01:31:08.968Z,13.4
2017-06-27T01:31:24.479Z,12.0
2017-06-27T01:31:40.086Z,14.7
2017-06-27T01:31:55.499Z,14.4
2017-06-27T01:32:10.911Z,12.7
2017-06-27T01:32:26.320Z,11.9
2017-06-27T01:32:42.029Z,11.1
2017-06-27T01:32:57.637Z,10.5
2017-06-27T01:33:12.946Z,11.6
2017-06-27T01:33:28.565Z,12.8
2017-06-27T01:33:43.973Z,12.3
2017-06-27T01:33:59.483Z,11.8
2017-06-27T01:34:14.993Z,9.8
2017-06-27T01:34:30.515Z,14.7
2017-06-27T01:34:46.123Z,15.5
2017-06-27T01:35:01.435Z,15.4
2017-06-27T01:35:16.846Z,18.0
2017-06-27T01:35:32.262Z,14.2
2017-06-27T01:35:47.673Z,16.9
2017-06-27T01:36:03.180Z,18.8
2017-06-27T01:36:18.485Z,17.4
2017-06-27T01:36:33.800Z,16.7
2017-06-27T01:36:49.317Z,13.2
2017-06-27T01:37:04.735Z,12.6
2017-06-27T01:37:20.241Z,11.9
2017-06-27T01:37:35.868Z,10.7
2017-06-27T01:37:51.470Z,9.8
2017-06-27T01:38:06.780Z,9.3
2017-06-27T01:38:22.186Z,9.8
2017-06-27T01:38:37.794Z,11.8
2017-06-27T01:38:53.201Z,12.5
2017-06-27T01:39:09.015Z,15.0
2017-06-27T01:39:24.430Z,14.2
2017-06-27T01:39:39.938Z,12.4
2017-06-27T01:39:55.343Z,11.5
2017-06-27T01:40:10.755Z,11.4
2017-06-27T01:40:26.672Z,14.2
2017-06-27T01:40:42.180Z,15.5
2017-06-27T01:40:57.795Z,15.8
2017-06-27T01:41:13.399Z,15.7
2017-06-27T01:41:29.114Z,12.5
2017-06-27T01:41:44.426Z,13.7
2017-06-27T01:41:59.937Z,12.8
2017-06-27T01:42:15.244Z,12.8
2017-06-27T01:42:30.447Z,15.2
2017-06-27T01:42:45.760Z,13.4
2017-06-27T01:43:01.397Z,12.8
2017-06-27T01:43:16.901Z,12.5
2017-06-27T01:43:32.407Z,8.9
2017-06-27T01:43:47.819Z,11.2
2017-06-27T01:44:03.241Z,11.9
2017-06-27T01:44:18.939Z,10.6
2017-06-27T01:44:34.349Z,11.2
2017-06-27T01:44:49.862Z,10.4
2017-06-27T01:45:05.471Z,16.0
2017-06-27T01:45:20.981Z,16.4
2017-06-27T01:45:36.589Z,16.7
2017-06-27T01:45:52.105Z,16.7
2017-06-27T01:46:07.521Z,16.7
2017-06-27T01:46:25.516Z,18.3
2017-06-27T01:46:41.132Z,19.9
2017-06-27T01:46:56.745Z,19.1
2017-06-27T01:47:12.151Z,20.2
2017-06-27T01:47:27.564Z,18.6
2017-06-27T01:47:43.080Z,19.8
2017-06-27T01:47:58.582Z,17.4
2017-06-27T01:48:13.994Z,14.9
2017-06-27T01:48:29.402Z,14.3
2017-06-27T01:48:44.908Z,14.0
2017-06-27T01:49:00.317Z,12.9
2017-06-27T01:49:15.824Z,13.0
2017-06-27T01:49:31.238Z,11.3
2017-06-27T01:49:46.648Z,13.8
2017-06-27T01:50:02.064Z,16.5
2017-06-27T01:50:17.705Z,17.0
2017-06-27T01:50:33.096Z,17.3
2017-06-27T01:50:48.509Z,15.1
2017-06-27T01:51:03.831Z,14.1
2017-06-27T01:51:19.332Z,12.7
2017-06-27T01:51:34.741Z,11.7
2017-06-27T01:51:50.458Z,11.0
2017-06-27T01:52:06.072Z,9.3
2017-06-27T01:52:21.580Z,9.9
2017-06-27T01:52:36.985Z,12.2
2017-06-27T01:52:52.396Z,12.8
2017-06-27T01:53:07.709Z,15.3
2017-06-27T01:53:23.119Z,16.1
2017-06-27T01:53:38.438Z,13.8
2017-06-27T01:53:53.848Z,16.5
2017-06-27T01:54:09.358Z,12.9
2017-06-27T01:54:24.666Z,14.3
2017-06-27T01:54:39.982Z,16.1
2017-06-27T01:54:55.593Z,17.3
2017-06-27T01:55:11.108Z,16.8
2017-06-27T01:55:26.530Z,15.2
2017-06-27T01:55:41.946Z,15.0
2017-06-27T01:55:57.354Z,12.6
2017-06-27T01:56:12.774Z,12.8
2017-06-27T01:56:28.076Z,11.2
2017-06-27T01:56:43.488Z,9.5
2017-06-27T01:56:59.200Z,10.3
2017-06-27T01:57:14.510Z,10.2
2017-06-27T01:57:29.920Z,15.3
2017-06-27T01:57:45.228Z,15.0
2017-06-27T01:58:00.640Z,14.2
2017-06-27T01:58:16.151Z,13.0
2017-06-27T01:58:31.660Z,11.6
2017-06-27T01:58:47.275Z,11.0
2017-06-27T01:59:02.586Z,12.1
2017-06-27T01:59:17.997Z,14.3
2017-06-27T01:59:33.307Z,14.2
2017-06-27T01:59:48.624Z,15.0
2017-06-27T02:00:04.226Z,16.7
2017-06-27T02:00:19.839Z,15.8
2017-06-27T02:00:35.350Z,14.6
2017-06-27T02:00:50.762Z,16.5
2017-06-27T02:01:06.274Z,15.4
2017-06-27T02:01:21.681Z,14.0
2017-06-27T02:01:37.296Z,13.7
2017-06-27T02:01:53.011Z,13.0
2017-06-27T02:02:08.414Z,17.3
2017-06-27T02:02:23.923Z,17.7
2017-06-27T02:02:39.433Z,19.9
2017-06-27T02:02:55.251Z,17.9
2017-06-27T02:03:11.062Z,14.1
2017-06-27T02:03:26.570Z,13.7
2017-06-27T02:03:42.083Z,15.4
2017-06-27T02:03:57.493Z,17.7
2017-06-27T02:04:12.709Z,16.3
2017-06-27T02:04:28.129Z,15.7
2017-06-27T02:04:43.541Z,13.9
2017-06-27T02:04:59.053Z,11.5
2017-06-27T02:05:14.568Z,12.4
2017-06-27T02:05:29.871Z,10.0
2017-06-27T02:05:45.080Z,13.0
2017-06-27T02:06:00.392Z,12.2
2017-06-27T02:06:16.959Z,11.3
2017-06-27T02:06:32.234Z,13.1
2017-06-27T02:06:47.639Z,12.0
2017-06-27T02:07:03.146Z,13.4
2017-06-27T02:07:18.455Z,15.5
2017-06-27T02:07:33.866Z,13.5
2017-06-27T02:07:49.478Z,14.1
2017-06-27T02:08:04.783Z,13.9
2017-06-27T02:08:20.408Z,16.2
2017-06-27T02:08:36.019Z,16.3
2017-06-27T02:08:51.523Z,16.7
2017-06-27T02:09:06.934Z,17.2
2017-06-27T02:09:22.359Z,18.0
2017-06-27T02:09:37.862Z,17.5
2017-06-27T02:09:53.267Z,16.2
2017-06-27T02:10:08.576Z,15.4
2017-06-27T02:10:23.884Z,13.2
2017-06-27T02:10:39.294Z,15.6
2017-06-27T02:10:55.105Z,16.1
2017-06-27T02:11:10.513Z,14.3
2017-06-27T02:11:26.224Z,12.5
2017-06-27T02:11:41.537Z,9.5
2017-06-27T02:11:56.947Z,9.4
2017-06-27T02:12:12.451Z,10.7
2017-06-27T02:12:28.464Z,12.3
2017-06-27T02:12:43.775Z,13.0
2017-06-27T02:12:59.284Z,12.4
2017-06-27T02:13:14.598Z,14.1
2017-06-27T02:13:30.117Z,12.1
2017-06-27T02:13:45.626Z,12.6
2017-06-27T02:14:00.932Z,12.8
2017-06-27T02:14:16.444Z,10.6
2017-06-27T02:14:31.756Z,12.2
2017-06-27T02:14:47.372Z,14.1
2017-06-27T02:15:03.080Z,13.3
2017-06-27T02:15:18.597Z,14.1
2017-06-27T02:15:34.202Z,16.5
2017-06-27T02:15:49.516Z,14.6
2017-06-27T02:16:04.924Z,17.4
2017-06-27T02:16:20.434Z,18.1
2017-06-27T02:16:36.049Z,16.4
2017-06-27T02:16:51.470Z,16.5
2017-06-27T02:17:07.082Z,15.3
2017-06-27T02:17:22.790Z,12.8
2017-06-27T02:17:38.202Z,13.5
2017-06-27T02:17:53.810Z,14.4
2017-06-27T02:18:09.114Z,14.4
2017-06-27T02:18:24.628Z,15.4
2017-06-27T02:18:40.239Z,15.5
2017-06-27T02:18:55.847Z,15.5
2017-06-27T02:19:11.564Z,15.9
2017-06-27T02:19:26.969Z,15.8
2017-06-27T02:19:42.279Z,13.0
2017-06-27T02:19:57.594Z,13.3
2017-06-27T02:20:12.902Z,12.6
2017-06-27T02:20:28.214Z,12.5
2017-06-27T02:20:43.626Z,15.9
2017-06-27T02:20:59.137Z,15.6
2017-06-27T02:21:14.846Z,15.2
2017-06-27T02:21:30.365Z,15.3
2017-06-27T02:21:45.873Z,12.7
2017-06-27T02:22:01.382Z,12.3
2017-06-27T02:22:17.091Z,12.1
2017-06-27T02:22:32.801Z,12.3
2017-06-27T02:22:48.215Z,12.2
2017-06-27T02:23:03.823Z,15.4
2017-06-27T02:23:19.331Z,17.8
2017-06-27T02:23:34.843Z,16.7
2017-06-27T02:23:50.154Z,15.7
2017-06-27T02:24:05.564Z,16.6
2017-06-27T02:24:21.462Z,17.2
2017-06-27T02:24:36.867Z,16.8
2017-06-27T02:24:52.174Z,17.6
2017-06-27T02:25:07.881Z,15.8
2017-06-27T02:25:23.391Z,15.8
2017-06-27T02:25:38.802Z,17.0
2017-06-27T02:25:54.315Z,17.3
2017-06-27T02:26:09.629Z,17.6
2017-06-27T02:26:25.044Z,17.6
2017-06-27T02:26:40.661Z,17.5
2017-06-27T02:26:55.972Z,19.7
2017-06-27T02:27:11.283Z,18.9
2017-06-27T02:27:26.892Z,17.7
2017-06-27T02:27:42.301Z,16.3
2017-06-27T02:27:57.711Z,16.6
2017-06-27T02:28:13.523Z,20.5
2017-06-27T02:28:29.031Z,20.5
2017-06-27T02:28:44.652Z,19.5
2017-06-27T02:28:59.965Z,17.7
2017-06-27T02:29:15.474Z,15.3
2017-06-27T02:29:31.190Z,14.9
2017-06-27T02:29:46.710Z,13.5
2017-06-27T02:30:02.124Z,10.5
2017-06-27T02:30:17.530Z,12.8
2017-06-27T02:30:33.137Z,12.6
2017-06-27T02:30:48.643Z,12.2
2017-06-27T02:31:03.966Z,12.2
2017-06-27T02:31:19.464Z,12.0
2017-06-27T02:31:35.176Z,14.5
2017-06-27T02:31:50.686Z,16.4
2017-06-27T02:32:06.199Z,18.6
2017-06-27T02:32:21.711Z,18.6
2017-06-27T02:32:37.125Z,21.0
2017-06-27T02:32:52.432Z,16.9
2017-06-27T02:33:07.942Z,14.1
2017-06-27T02:33:23.756Z,11.8
2017-06-27T02:33:39.368Z,8.2
2017-06-27T02:33:54.872Z,11.3
2017-06-27T02:34:10.379Z,13.9
2017-06-27T02:34:25.796Z,15.5
2017-06-27T02:34:41.197Z,18.9
2017-06-27T02:34:56.907Z,19.0
2017-06-27T02:35:12.520Z,18.3
2017-06-27T02:35:28.129Z,15.7
2017-06-27T02:35:43.437Z,15.5
2017-06-27T02:35:58.842Z,13.9
2017-06-27T02:36:14.249Z,15.7
2017-06-27T02:36:29.758Z,15.3
2017-06-27T02:36:45.268Z,12.8
2017-06-27T02:37:00.785Z,13.4
2017-06-27T02:37:16.294Z,14.2
2017-06-27T02:37:31.706Z,14.7
2017-06-27T02:37:47.014Z,14.8
2017-06-27T02:38:02.721Z,13.0
2017-06-27T02:38:17.940Z,14.5
2017-06-27T02:38:33.249Z,16.5
2017-06-27T02:38:48.661Z,17.7
2017-06-27T02:39:04.069Z,18.4
2017-06-27T02:39:19.583Z,15.0
2017-06-27T02:39:35.087Z,14.0
2017-06-27T02:39:50.505Z,14.5
2017-06-27T02:40:05.912Z,14.3
2017-06-27T02:40:21.224Z,16.5
2017-06-27T02:40:36.640Z,18.0
2017-06-27T02:40:52.357Z,19.0
2017-06-27T02:41:07.967Z,21.1
2017-06-27T02:41:23.375Z,21.4
2017-06-27T02:41:39.184Z,22.9
2017-06-27T02:41:54.796Z,21.5
2017-06-27T02:42:10.204Z,16.2
2017-06-27T02:42:25.516Z,15.2
2017-06-27T02:42:41.127Z,11.8
2017-06-27T02:42:56.459Z,12.9
2017-06-27T02:43:11.971Z,14.8
2017-06-27T02:43:27.281Z,14.8
2017-06-27T02:43:42.896Z,16.8
2017-06-27T02:43:58.414Z,15.7
2017-06-27T02:44:13.826Z,17.3
2017-06-27T02:44:29.442Z,20.9
2017-06-27T02:44:44.845Z,19.5
2017-06-27T02:45:00.578Z,19.9
2017-06-27T02:45:15.986Z,17.3
2017-06-27T02:45:31.501Z,13.7
2017-06-27T02:45:46.913Z,15.2
2017-06-27T02:46:02.628Z,16.0
2017-06-27T02:46:19.536Z,15.3
2017-06-27T02:46:35.158Z,17.6
2017-06-27T02:46:50.468Z,19.3
2017-06-27T02:47:06.081Z,18.7
2017-06-27T02:47:21.489Z,19.6
2017-06-27T02:47:36.905Z,23.8
2017-06-27T02:47:52.312Z,23.4
2017-06-27T02:48:08.023Z,21.6
2017-06-27T02:48:23.333Z,22.5
2017-06-27T02:48:38.943Z,16.8
2017-06-27T02:48:54.360Z,11.4
2017-06-27T02:49:09.766Z,14.4
2017-06-27T02:49:24.973Z,12.1
2017-06-27T02:49:40.481Z,15.4
2017-06-27T02:49:56.092Z,17.7
2017-06-27T02:50:11.697Z,14.5
2017-06-27T02:50:27.210Z,16.7
2017-06-27T02:50:42.834Z,13.5
2017-06-27T02:50:58.342Z,13.8
2017-06-27T02:51:13.852Z,15.3
2017-06-27T02:51:29.366Z,13.3
2017-06-27T02:51:44.683Z,14.3
2017-06-27T02:52:00.398Z,18.2
2017-06-27T02:52:15.804Z,20.5
2017-06-27T02:52:31.316Z,20.3
2017-06-27T02:52:46.827Z,21.0
2017-06-27T02:53:02.441Z,19.5
2017-06-27T02:53:17.956Z,19.2
2017-06-27T02:53:33.369Z,17.6
2017-06-27T02:53:49.183Z,19.0
2017-06-27T02:54:04.688Z,18.7
2017-06-27T02:54:20.140Z,18.6
2017-06-27T02:54:36.015Z,20.6
2017-06-27T02:54:51.530Z,17.2
2017-06-27T02:55:06.942Z,12.0
2017-06-27T02:55:22.453Z,11.7
2017-06-27T02:55:38.365Z,9.6
2017-06-27T02:55:53.681Z,13.8
2017-06-27T02:56:09.091Z,16.3
2017-06-27T02:56:24.713Z,18.2
2017-06-27T02:56:40.124Z,19.6
2017-06-27T02:56:55.639Z,16.5
2017-06-27T02:57:10.949Z,18.4
2017-06-27T02:57:26.263Z,18.0
2017-06-27T02:57:41.674Z,20.4
2017-06-27T02:57:57.188Z,20.4
2017-06-27T02:58:12.793Z,20.7
2017-06-27T02:58:28.313Z,18.1
2017-06-27T02:58:43.616Z,15.6
2017-06-27T02:58:59.136Z,15.2
2017-06-27T02:59:14.651Z,13.8
2017-06-27T02:59:30.061Z,14.4
2017-06-27T02:59:45.568Z,17.2
2017-06-27T03:00:00.881Z,17.3
2017-06-27T03:00:16.098Z,17.1
2017-06-27T03:00:31.514Z,16.6
2017-06-27T03:00:47.023Z,20.0
2017-06-27T03:01:02.634Z,20.2
2017-06-27T03:01:18.136Z,21.7
2017-06-27T03:01:33.851Z,18.9
2017-06-27T03:01:49.263Z,16.3
2017-06-27T03:02:04.976Z,16.0
2017-06-27T03:02:20.492Z,13.5
2017-06-27T03:02:36.205Z,12.8
2017-06-27T03:02:51.626Z,12.6
2017-06-27T03:03:07.059Z,15.1
2017-06-27T03:03:22.546Z,14.9
2017-06-27T03:03:38.156Z,16.8
2017-06-27T03:03:53.571Z,14.6
2017-06-27T03:04:09.185Z,12.9
2017-06-27T03:04:24.703Z,13.9
2017-06-27T03:04:40.214Z,12.2
2017-06-27T03:04:55.734Z,11.4
2017-06-27T03:05:11.249Z,12.3
2017-06-27T03:05:26.563Z,16.2
2017-06-27T03:05:41.976Z,19.2
2017-06-27T03:05:57.686Z,20.5
2017-06-27T03:06:13.202Z,19.6
2017-06-27T03:06:28.420Z,12.9
2017-06-27T03:06:44.132Z,11.3
2017-06-27T03:06:59.538Z,12.6
2017-06-27T03:07:15.056Z,12.5
2017-06-27T03:07:30.568Z,16.5
2017-06-27T03:07:46.282Z,17.5
2017-06-27T03:08:01.591Z,14.7
2017-06-27T03:08:17.305Z,17.2
2017-06-27T03:08:33.021Z,18.3
2017-06-27T03:08:48.431Z,20.1
2017-06-27T03:09:03.941Z,21.5
2017-06-27T03:09:19.659Z,19.2
2017-06-27T03:09:35.072Z,17.2
2017-06-27T03:09:50.488Z,18.6
2017-06-27T03:10:05.800Z,18.1
2017-06-27T03:10:21.414Z,19.1
2017-06-27T03:10:37.025Z,16.5
2017-06-27T03:10:52.543Z,13.2
2017-06-27T03:11:07.859Z,13.2
2017-06-27T03:11:23.472Z,11.4
2017-06-27T03:11:38.884Z,11.2
2017-06-27T03:11:54.298Z,11.3
2017-06-27T03:12:09.706Z,13.1
2017-06-27T03:12:25.523Z,15.4
2017-06-27T03:12:41.037Z,15.9
2017-06-27T03:12:56.350Z,17.0
2017-06-27T03:13:11.664Z,15.7
2017-06-27T03:13:27.174Z,14.1
2017-06-27T03:13:42.587Z,14.8
2017-06-27T03:13:57.997Z,11.0
2017-06-27T03:14:13.711Z,11.5
2017-06-27T03:14:29.024Z,11.5
2017-06-27T03:14:44.434Z,11.4
2017-06-27T03:14:59.946Z,13.2
2017-06-27T03:15:15.365Z,13.8
2017-06-27T03:15:30.979Z,16.9
2017-06-27T03:15:46.490Z,18.6
2017-06-27T03:16:02.199Z,19.3
2017-06-27T03:16:17.810Z,16.8
2017-06-27T03:16:33.125Z,18.6
2017-06-27T03:16:48.542Z,14.6
2017-06-27T03:17:04.104Z,13.0
2017-06-27T03:17:19.614Z,15.5
2017-06-27T03:17:35.124Z,18.0
2017-06-27T03:17:50.641Z,18.6
2017-06-27T03:18:05.949Z,22.6
2017-06-27T03:18:21.365Z,20.0
2017-06-27T03:18:36.778Z,18.6
2017-06-27T03:18:52.294Z,18.1
2017-06-27T03:19:07.605Z,19.6
2017-06-27T03:19:23.219Z,20.6
2017-06-27T03:19:38.628Z,26.7
2017-06-27T03:19:54.041Z,25.5
2017-06-27T03:20:09.450Z,21.6
2017-06-27T03:20:25.467Z,21.6
2017-06-27T03:20:40.781Z,18.5
2017-06-27T03:20:56.388Z,19.2
2017-06-27T03:21:11.805Z,17.9
2017-06-27T03:21:27.216Z,16.0
2017-06-27T03:21:42.734Z,17.6
2017-06-27T03:21:58.346Z,18.7
2017-06-27T03:22:13.861Z,19.2
2017-06-27T03:22:29.477Z,16.6
2017-06-27T03:22:44.989Z,15.2
2017-06-27T03:23:00.598Z,17.1
2017-06-27T03:23:16.010Z,18.6
2017-06-27T03:23:31.624Z,22.2
2017-06-27T03:23:46.839Z,19.5
2017-06-27T03:24:02.352Z,15.5
2017-06-27T03:24:17.769Z,15.9
2017-06-27T03:24:33.283Z,12.1
2017-06-27T03:24:48.491Z,12.9
2017-06-27T03:25:04.019Z,16.1
2017-06-27T03:25:19.450Z,14.8
2017-06-27T03:25:35.067Z,14.7
2017-06-27T03:25:50.577Z,14.0
2017-06-27T03:26:06.300Z,15.3
2017-06-27T03:26:21.612Z,14.3
2017-06-27T03:26:37.329Z,17.4
2017-06-27T03:26:52.741Z,16.9
2017-06-27T03:27:08.061Z,13.2
2017-06-27T03:27:23.670Z,16.6